Time;durP1;ratioP1;P1;durP2;ratioP2;P2;SDS_P1;SDS_P2;PMS_P1;PMS_P2;Temp;Humidity;BMP_temperature;BMP_pressure;BME280_temperature;BME280_humidity;BME280_pressure;Samples;Min_cycle;Max_cycle;Signal;HPM_P1;HPM_P2
2023/09/08 00:00:36;;;;;;;8.80;7.50;;;20.00;99.90;;;;;;5018673;28;20755;-57
2023/09/08 00:03:02;;;;;;;7.87;7.17;;;19.90;99.90;;;;;;5043536;28;20305;-57
2023/09/08 00:05:28;;;;;;;9.03;8.13;;;19.90;99.90;;;;;;5040334;28;20226;-58
2023/09/08 00:07:53;;;;;;;9.90;8.93;;;19.80;99.90;;;;;;5014923;28;20318;-56
2023/09/08 00:10:18;;;;;;;9.77;8.73;;;19.80;99.90;;;;;;5038975;28;20206;-56
2023/09/08 00:12:44;;;;;;;9.63;8.10;;;19.80;99.90;;;;;;5030830;28;20260;-56
2023/09/08 00:15:10;;;;;;;10.63;8.53;;;19.70;99.90;;;;;;5030962;28;21069;-57
2023/09/08 00:17:36;;;;;;;10.93;7.90;;;19.60;99.90;;;;;;5039677;28;20285;-57
2023/09/08 00:20:06;;;;;;;9.30;8.13;;;19.60;99.90;;;;;;5033764;28;20264;-58
2023/09/08 00:22:31;;;;;;;8.30;7.50;;;19.60;99.90;;;;;;5038339;28;20202;-57
2023/09/08 00:24:57;;;;;;;8.37;7.57;;;19.50;99.90;;;;;;5039859;28;20434;-57
2023/09/08 00:27:22;;;;;;;10.77;8.00;;;19.50;99.90;;;;;;5035648;28;20213;-57
2023/09/08 00:29:48;;;;;;;10.10;8.47;;;19.40;99.90;;;;;;5034154;28;20210;-57
2023/09/08 00:32:13;;;;;;;10.87;8.20;;;19.40;99.90;;;;;;5040219;28;20282;-56
2023/09/08 00:34:40;;;;;;;11.17;8.87;;;19.30;99.90;;;;;;5039303;28;20199;-57
2023/09/08 00:37:07;;;;;;;11.50;8.50;;;19.30;99.90;;;;;;5038137;28;20213;-57
2023/09/08 00:39:35;;;;;;;10.37;8.30;;;19.30;99.90;;;;;;5036707;28;20206;-57
2023/09/08 00:42:00;;;;;;;15.77;8.23;;;19.20;99.90;;;;;;5038448;28;20233;-57
2023/09/08 00:44:26;;;;;;;11.00;8.97;;;19.20;99.90;;;;;;5033270;28;20202;-56
2023/09/08 00:46:51;;;;;;;9.40;8.27;;;19.20;99.90;;;;;;5004112;28;986891;-57
2023/09/08 00:49:17;;;;;;;9.37;8.00;;;19.20;99.90;;;;;;5032520;28;20697;-57
2023/09/08 00:51:42;;;;;;;10.37;9.33;;;19.10;99.90;;;;;;5022281;28;20247;-56
2023/09/08 00:54:08;;;;;;;10.83;8.43;;;19.10;99.90;;;;;;5041818;28;20209;-57
2023/09/08 00:56:36;;;;;;;8.77;7.97;;;19.10;99.90;;;;;;5018010;28;20203;-57
2023/09/08 00:59:03;;;;;;;9.27;8.40;;;19.10;99.90;;;;;;5039123;28;20209;-57
2023/09/08 01:01:29;;;;;;;10.70;8.67;;;19.00;99.90;;;;;;5019808;28;20228;-57
2023/09/08 01:03:54;;;;;;;9.87;8.97;;;19.00;99.90;;;;;;5036431;28;20206;-57
2023/09/08 01:06:21;;;;;;;9.67;8.37;;;18.90;99.90;;;;;;5037746;28;20668;-57
2023/09/08 01:08:47;;;;;;;8.57;7.70;;;18.90;99.90;;;;;;5028733;28;20240;-57
2023/09/08 01:11:12;;;;;;;10.13;8.33;;;18.80;99.90;;;;;;5033723;28;20233;-58
2023/09/08 01:13:38;;;;;;;8.93;8.03;;;18.80;99.90;;;;;;5028868;28;20592;-58
2023/09/08 01:16:04;;;;;;;9.53;8.63;;;18.70;99.90;;;;;;5040255;28;20396;-58
2023/09/08 01:18:29;;;;;;;10.30;9.23;;;18.70;99.90;;;;;;5041115;28;20202;-58
2023/09/08 01:21:27;;;;;;;13.07;10.53;;;18.70;99.90;;;;;;5020892;28;20249;-58
2023/09/08 01:24:17;;;;;;;10.70;9.47;;;18.60;99.90;;;;;;5001363;28;20203;-58
2023/09/08 01:26:42;;;;;;;10.93;9.10;;;18.60;99.90;;;;;;5033704;28;20259;-58
2023/09/08 01:29:10;;;;;;;9.80;8.87;;;18.60;99.90;;;;;;5040730;28;20214;-58
2023/09/08 01:31:37;;;;;;;9.77;8.87;;;18.60;99.90;;;;;;5045348;28;20198;-58
2023/09/08 01:34:06;;;;;;;8.80;8.00;;;18.50;99.90;;;;;;5032307;28;20291;-58
2023/09/08 01:36:35;;;;;;;10.67;8.10;;;18.50;99.90;;;;;;5039872;28;20708;-57
2023/09/08 01:39:01;;;;;;;9.37;7.87;;;18.50;99.90;;;;;;5036178;28;20289;-57
2023/09/08 01:41:27;;;;;;;10.20;9.20;;;18.50;99.90;;;;;;5035711;28;20226;-57
2023/09/08 01:43:52;;;;;;;9.83;8.87;;;18.50;99.90;;;;;;5030920;28;20213;-57
2023/09/08 01:46:18;;;;;;;10.13;9.10;;;18.50;99.90;;;;;;5038990;28;20195;-57
2023/09/08 01:48:43;;;;;;;10.33;8.73;;;18.50;99.90;;;;;;5002743;28;20693;-57
2023/09/08 01:51:09;;;;;;;10.10;8.03;;;18.40;99.90;;;;;;4997263;28;20818;-56
2023/09/08 01:53:34;;;;;;;10.27;9.27;;;18.40;99.90;;;;;;5003583;28;20215;-56
2023/09/08 01:56:00;;;;;;;9.17;8.27;;;18.40;99.90;;;;;;5005290;28;20288;-56
2023/09/08 01:58:26;;;;;;;8.50;7.70;;;18.40;99.90;;;;;;4998057;28;20223;-57
2023/09/08 02:00:51;;;;;;;12.23;8.67;;;18.40;99.90;;;;;;5002135;28;20431;-56
2023/09/08 02:03:17;;;;;;;11.20;8.20;;;18.40;99.90;;;;;;5003612;28;20222;-56
2023/09/08 02:05:43;;;;;;;10.30;8.67;;;18.30;99.90;;;;;;4996046;28;20207;-56
2023/09/08 02:08:08;;;;;;;9.60;8.60;;;18.30;99.90;;;;;;5008966;28;20281;-56
2023/09/08 02:10:34;;;;;;;12.60;8.60;;;18.30;99.90;;;;;;4999803;28;20196;-63
2023/09/08 02:12:59;;;;;;;9.07;8.27;;;18.30;99.90;;;;;;4999837;28;20992;-60
2023/09/08 02:15:24;;;;;;;9.50;8.17;;;18.40;99.90;;;;;;4998124;28;20208;-57
2023/09/08 02:17:56;;;;;;;10.13;7.87;;;18.40;99.90;;;;;;5001733;28;20254;-55
2023/09/08 02:20:22;;;;;;;9.00;8.10;;;18.40;99.90;;;;;;4998403;28;20295;-56
2023/09/08 02:22:50;;;;;;;9.37;8.47;;;18.50;99.90;;;;;;5000421;28;20947;-56
2023/09/08 02:25:15;;;;;;;10.83;8.50;;;18.50;99.90;;;;;;5007484;28;20197;-56
2023/09/08 02:27:41;;;;;;;8.73;7.83;;;18.50;99.90;;;;;;5007941;28;20717;-56
2023/09/08 02:30:07;;;;;;;9.53;7.50;;;18.60;99.90;;;;;;4999917;28;20728;-56
2023/09/08 02:32:32;;;;;;;9.40;8.37;;;18.60;99.90;;;;;;5004451;28;20202;-56
2023/09/08 02:34:58;;;;;;;9.27;8.17;;;18.60;99.90;;;;;;5005963;28;20225;-56
2023/09/08 02:37:23;;;;;;;9.03;8.10;;;18.70;99.90;;;;;;5001905;28;20633;-56
2023/09/08 02:39:49;;;;;;;11.30;8.23;;;18.70;99.90;;;;;;4993507;28;20630;-57
2023/09/08 02:42:14;;;;;;;9.60;7.57;;;18.60;99.90;;;;;;5000323;28;20295;-58
2023/09/08 02:44:40;;;;;;;9.60;8.70;;;18.60;99.90;;;;;;4997734;28;21071;-56
2023/09/08 02:47:06;;;;;;;9.20;8.33;;;18.60;99.90;;;;;;5006467;28;20232;-56
2023/09/08 02:49:31;;;;;;;10.17;8.63;;;18.60;99.90;;;;;;5033632;28;20238;-56
2023/09/08 02:51:57;;;;;;;9.03;8.13;;;18.60;99.90;;;;;;5029286;28;20293;-62
2023/09/08 02:54:23;;;;;;;11.53;8.33;;;18.70;99.90;;;;;;5034446;28;20222;-63
2023/09/08 02:56:48;;;;;;;9.27;8.37;;;18.70;99.90;;;;;;5036345;28;20206;-62
2023/09/08 02:59:14;;;;;;;9.20;7.93;;;18.80;99.90;;;;;;5036214;28;20585;-56
2023/09/08 03:01:39;;;;;;;10.23;8.37;;;18.80;99.90;;;;;;5038678;28;20224;-56
2023/09/08 03:04:05;;;;;;;9.00;8.20;;;18.70;99.90;;;;;;5036121;28;20213;-56
2023/09/08 03:06:31;;;;;;;8.77;7.87;;;18.70;99.90;;;;;;5037367;28;20245;-56
2023/09/08 03:08:58;;;;;;;9.20;8.30;;;18.70;99.90;;;;;;5035968;28;20259;-56
2023/09/08 03:11:24;;;;;;;9.13;8.33;;;18.70;99.90;;;;;;5039729;28;20516;-57
2023/09/08 03:13:49;;;;;;;8.57;7.77;;;18.60;99.90;;;;;;5024211;28;20723;-57
2023/09/08 03:16:15;;;;;;;12.20;9.47;;;18.70;99.90;;;;;;5038088;28;20823;-57
2023/09/08 03:18:41;;;;;;;9.30;8.47;;;18.70;99.90;;;;;;5043696;28;20208;-58
2023/09/08 03:21:09;;;;;;;10.57;8.47;;;18.70;99.90;;;;;;5041619;28;20297;-57
2023/09/08 03:23:43;;;;;;;8.73;7.93;;;18.70;99.90;;;;;;5032425;28;20197;-57
2023/09/08 03:26:09;;;;;;;9.50;8.10;;;18.70;99.90;;;;;;5037092;28;20555;-56
2023/09/08 03:28:36;;;;;;;10.47;9.40;;;18.70;99.90;;;;;;5040104;28;20231;-56
2023/09/08 03:31:02;;;;;;;10.23;8.07;;;18.60;99.90;;;;;;5033437;28;20842;-57
2023/09/08 03:33:27;;;;;;;9.00;8.10;;;18.60;99.90;;;;;;5042112;28;20208;-56
2023/09/08 03:35:53;;;;;;;16.03;10.20;;;18.60;99.90;;;;;;5035558;28;20212;-56
2023/09/08 03:38:18;;;;;;;11.33;8.97;;;18.60;99.90;;;;;;5030093;28;20288;-57
2023/09/08 03:40:44;;;;;;;11.37;8.27;;;18.50;99.90;;;;;;5035432;28;20212;-56
2023/09/08 03:43:09;;;;;;;9.37;8.57;;;18.50;99.90;;;;;;5038830;28;20233;-56
2023/09/08 03:45:35;;;;;;;10.37;8.83;;;18.50;99.90;;;;;;5034362;28;20204;-56
2023/09/08 03:48:00;;;;;;;9.93;9.03;;;18.50;99.90;;;;;;5022292;28;20331;-56
2023/09/08 03:50:26;;;;;;;11.43;8.93;;;18.50;99.90;;;;;;5039132;28;20215;-56
2023/09/08 03:52:53;;;;;;;10.63;9.00;;;18.50;99.90;;;;;;5031687;28;20217;-56
2023/09/08 03:55:19;;;;;;;10.33;9.33;;;18.50;99.90;;;;;;5035446;28;20287;-56
2023/09/08 03:57:44;;;;;;;9.53;8.60;;;18.50;99.90;;;;;;5020659;28;20383;-59
2023/09/08 04:00:10;;;;;;;10.87;8.60;;;18.30;99.90;;;;;;5041084;28;20202;-57
2023/09/08 04:02:36;;;;;;;10.87;9.10;;;18.30;99.90;;;;;;5037290;28;20222;-56
2023/09/08 04:05:02;;;;;;;10.20;9.10;;;18.40;99.90;;;;;;5037314;28;20217;-57
2023/09/08 04:07:27;;;;;;;10.60;9.50;;;18.30;99.90;;;;;;5039458;28;20210;-56
2023/09/08 04:09:53;;;;;;;10.10;9.10;;;18.30;99.90;;;;;;5032881;28;20209;-56
2023/09/08 04:12:18;;;;;;;9.33;8.33;;;18.30;99.90;;;;;;5029737;28;20195;-57
2023/09/08 04:14:44;;;;;;;14.83;9.53;;;18.30;99.90;;;;;;5035298;28;20205;-56
2023/09/08 04:17:09;;;;;;;10.17;9.17;;;18.30;99.90;;;;;;5037353;28;20204;-57
2023/09/08 04:19:35;;;;;;;10.70;9.60;;;18.30;99.90;;;;;;5035171;28;20805;-57
2023/09/08 04:22:00;;;;;;;9.67;8.63;;;18.30;99.90;;;;;;5034086;28;20217;-57
2023/09/08 04:24:26;;;;;;;13.40;10.33;;;18.20;99.90;;;;;;5032425;28;20208;-56
2023/09/08 04:26:51;;;;;;;10.83;9.83;;;18.20;99.90;;;;;;5036428;28;20603;-56
2023/09/08 04:29:17;;;;;;;10.27;9.27;;;18.30;99.90;;;;;;5036441;28;20203;-56
2023/09/08 04:31:42;;;;;;;9.80;8.80;;;18.20;99.90;;;;;;5035980;28;20228;-57
2023/09/08 04:34:08;;;;;;;10.63;9.70;;;18.20;99.90;;;;;;5034516;28;20755;-56
2023/09/08 04:36:33;;;;;;;10.07;8.90;;;18.20;99.90;;;;;;5037433;28;20195;-56
2023/09/08 04:38:59;;;;;;;9.23;8.23;;;18.20;99.90;;;;;;5034829;28;20210;-56
2023/09/08 04:41:24;;;;;;;11.90;9.60;;;18.20;99.90;;;;;;5036862;28;20236;-56
2023/09/08 04:43:50;;;;;;;10.33;9.10;;;18.20;99.90;;;;;;5038079;28;20220;-56
2023/09/08 04:46:15;;;;;;;9.67;8.77;;;18.20;99.90;;;;;;5035857;28;20237;-56
2023/09/08 04:48:42;;;;;;;10.80;9.70;;;18.20;99.90;;;;;;5034809;28;20290;-56
2023/09/08 04:51:07;;;;;;;10.63;9.53;;;18.20;99.90;;;;;;5031856;28;20197;-56
2023/09/08 04:53:33;;;;;;;11.53;9.83;;;18.30;99.90;;;;;;5037518;28;20200;-56
2023/09/08 04:55:59;;;;;;;9.90;8.87;;;18.20;99.90;;;;;;5043409;28;20235;-56
2023/09/08 04:58:24;;;;;;;13.83;8.80;;;18.20;99.90;;;;;;5035473;28;20944;-56
2023/09/08 05:00:49;;;;;;;10.37;9.33;;;18.20;99.90;;;;;;5035677;28;20218;-57
2023/09/08 05:03:15;;;;;;;12.43;11.23;;;18.20;99.90;;;;;;5044141;28;20223;-56
2023/09/08 05:05:40;;;;;;;11.43;10.13;;;18.30;99.90;;;;;;5029546;28;20210;-56
2023/09/08 05:08:06;;;;;;;9.97;8.97;;;18.20;99.90;;;;;;5017532;28;20301;-56
2023/09/08 05:10:31;;;;;;;9.60;8.67;;;18.10;99.90;;;;;;5033708;28;20229;-57
2023/09/08 05:12:57;;;;;;;10.37;9.37;;;18.20;99.90;;;;;;5029770;28;20278;-57
2023/09/08 05:15:25;;;;;;;13.20;9.93;;;18.20;99.90;;;;;;5035520;28;21276;-56
2023/09/08 05:17:50;;;;;;;11.23;10.13;;;18.20;99.90;;;;;;5039896;28;20259;-56
2023/09/08 05:20:16;;;;;;;10.87;9.87;;;18.20;99.90;;;;;;5031370;28;20211;-57
2023/09/08 05:22:42;;;;;;;13.40;10.57;;;18.20;99.90;;;;;;5019566;28;20220;-55
2023/09/08 05:25:08;;;;;;;10.90;9.10;;;18.20;99.90;;;;;;5035118;28;20217;-55
2023/09/08 05:27:33;;;;;;;11.40;9.73;;;18.30;99.90;;;;;;5040495;28;20245;-57
2023/09/08 05:29:59;;;;;;;11.27;10.17;;;18.30;99.90;;;;;;5017665;28;20733;-57
2023/09/08 05:32:24;;;;;;;11.10;9.67;;;18.30;99.90;;;;;;5031881;28;20197;-57
2023/09/08 05:34:50;;;;;;;10.93;9.83;;;18.30;99.90;;;;;;5030622;28;20681;-58
2023/09/08 05:37:15;;;;;;;12.03;10.80;;;18.30;99.90;;;;;;5024512;28;20848;-56
2023/09/08 05:39:41;;;;;;;11.10;8.77;;;18.20;99.90;;;;;;5033707;28;20205;-57
2023/09/08 05:42:06;;;;;;;12.10;9.90;;;18.20;99.90;;;;;;5035367;28;20220;-57
2023/09/08 05:44:32;;;;;;;10.43;9.43;;;18.10;99.90;;;;;;5026007;28;20696;-57
2023/09/08 05:46:57;;;;;;;11.33;9.57;;;18.20;99.90;;;;;;5033038;28;20233;-56
2023/09/08 05:49:23;;;;;;;10.13;9.17;;;18.20;99.90;;;;;;5034203;28;20296;-57
2023/09/08 05:51:49;;;;;;;10.77;9.23;;;18.30;99.90;;;;;;5036680;28;20338;-57
2023/09/08 05:54:14;;;;;;;10.73;9.63;;;18.30;99.90;;;;;;5016743;28;20212;-56
2023/09/08 05:56:40;;;;;;;12.90;10.40;;;18.30;99.90;;;;;;5032599;28;21061;-56
2023/09/08 05:59:05;;;;;;;11.13;9.90;;;18.20;99.90;;;;;;5035509;28;20202;-56
2023/09/08 06:01:31;;;;;;;11.53;10.33;;;18.30;99.90;;;;;;5032473;28;20249;-55
2023/09/08 06:03:57;;;;;;;12.67;9.83;;;18.40;99.90;;;;;;5030819;28;20781;-56
2023/09/08 06:06:22;;;;;;;12.13;10.70;;;18.50;99.90;;;;;;5029953;28;20274;-56
2023/09/08 06:08:48;;;;;;;11.70;10.27;;;18.50;99.90;;;;;;5017782;28;20656;-56
2023/09/08 06:11:14;;;;;;;11.20;10.10;;;18.60;99.90;;;;;;5030085;28;20203;-57
2023/09/08 06:13:39;;;;;;;10.53;9.53;;;18.70;99.90;;;;;;5030872;28;20194;-57
2023/09/08 06:16:05;;;;;;;10.97;9.73;;;18.70;99.90;;;;;;5033357;28;20202;-57
2023/09/08 06:18:31;;;;;;;11.10;9.87;;;18.70;99.90;;;;;;5028303;28;20196;-57
2023/09/08 06:20:56;;;;;;;13.17;9.67;;;18.70;99.90;;;;;;5031951;28;20206;-57
2023/09/08 06:23:22;;;;;;;13.40;9.87;;;18.70;99.90;;;;;;5033321;28;20688;-65
2023/09/08 06:25:49;;;;;;;12.83;9.40;;;18.80;99.90;;;;;;5014634;28;20204;-61
2023/09/08 06:28:14;;;;;;;11.10;9.93;;;18.90;99.90;;;;;;5038586;28;20710;-60
2023/09/08 06:30:41;;;;;;;10.43;9.30;;;18.90;99.90;;;;;;5037338;28;20210;-56
2023/09/08 06:33:10;;;;;;;13.53;9.73;;;19.00;99.90;;;;;;5039043;28;20194;-58
2023/09/08 06:35:35;;;;;;;9.67;8.77;;;19.10;99.90;;;;;;5013889;28;20197;-56
2023/09/08 06:38:01;;;;;;;10.47;9.27;;;19.20;99.90;;;;;;5034036;28;20259;-57
2023/09/08 06:40:28;;;;;;;12.30;9.30;;;19.30;99.90;;;;;;5029961;28;20267;-57
2023/09/08 06:42:55;;;;;;;12.90;10.17;;;19.40;99.90;;;;;;5034936;28;20324;-58
2023/09/08 06:45:20;;;;;;;11.30;10.10;;;19.40;99.90;;;;;;5032075;28;20663;-57
2023/09/08 06:47:46;;;;;;;9.57;8.37;;;19.50;99.90;;;;;;5037510;28;20301;-57
2023/09/08 06:50:11;;;;;;;13.80;10.67;;;19.50;99.90;;;;;;5039888;28;20201;-59
2023/09/08 06:52:37;;;;;;;12.13;9.33;;;19.50;99.90;;;;;;5035080;28;20206;-58
2023/09/08 06:55:03;;;;;;;10.53;9.03;;;19.60;99.90;;;;;;5044418;28;20206;-57
2023/09/08 06:57:30;;;;;;;10.77;9.30;;;19.60;99.90;;;;;;5042848;28;20212;-56
2023/09/08 06:59:56;;;;;;;11.87;9.00;;;19.70;99.90;;;;;;5031805;28;20198;-64
2023/09/08 07:02:21;;;;;;;10.87;9.37;;;19.80;99.90;;;;;;5038795;28;20259;-64
2023/09/08 07:04:46;;;;;;;10.93;9.17;;;19.80;99.90;;;;;;5034194;28;20210;-63
2023/09/08 07:07:12;;;;;;;12.10;8.80;;;19.90;99.90;;;;;;5022138;28;20642;-65
2023/09/08 07:09:38;;;;;;;10.97;8.83;;;20.00;99.90;;;;;;5036454;28;20202;-58
2023/09/08 07:12:06;;;;;;;14.20;8.52;;;20.30;99.90;;;;;;5031199;28;20204;-62
2023/09/08 07:14:32;;;;;;;12.23;9.37;;;20.40;99.90;;;;;;5042373;28;20268;-55
2023/09/08 07:16:58;;;;;;;13.43;9.23;;;20.60;99.90;;;;;;5038084;28;20218;-55
2023/09/08 07:19:23;;;;;;;14.83;9.13;;;20.60;99.90;;;;;;5047714;28;20291;-56
2023/09/08 07:21:49;;;;;;;8.87;7.47;;;20.80;99.90;;;;;;5034738;28;20301;-56
2023/09/08 07:24:14;;;;;;;11.07;8.63;;;20.90;99.90;;;;;;5039300;28;20199;-57
2023/09/08 07:26:40;;;;;;;8.53;7.70;;;21.10;99.90;;;;;;5040501;28;20202;-57
2023/09/08 07:29:05;;;;;;;11.17;8.17;;;21.20;99.90;;;;;;5038418;28;20202;-57
2023/09/08 07:31:31;;;;;;;15.10;8.23;;;21.20;99.90;;;;;;5035293;28;20210;-55
2023/09/08 07:33:56;;;;;;;14.07;8.07;;;21.40;99.90;;;;;;5020642;28;20232;-54
2023/09/08 07:36:22;;;;;;;12.37;7.27;;;21.30;99.90;;;;;;5038035;28;20212;-59
2023/09/08 07:38:47;;;;;;;8.23;7.37;;;21.50;99.90;;;;;;5039467;28;20711;-56
2023/09/08 07:41:13;;;;;;;8.85;7.88;;;21.60;99.90;;;;;;5036616;28;20208;-58
2023/09/08 07:43:40;;;;;;;8.93;6.93;;;21.60;99.90;;;;;;5022410;28;20717;-56
2023/09/08 07:46:06;;;;;;;11.27;7.70;;;21.60;99.90;;;;;;5033357;28;20206;-57
2023/09/08 07:48:32;;;;;;;8.80;7.97;;;21.70;99.90;;;;;;5034522;28;20228;-57
2023/09/08 07:50:59;;;;;;;7.77;7.10;;;21.80;99.90;;;;;;5017038;28;20217;-55
2023/09/08 07:53:28;;;;;;;7.83;7.03;;;21.80;99.90;;;;;;5031078;28;20215;-55
2023/09/08 07:55:53;;;;;;;9.23;7.53;;;21.90;99.90;;;;;;5028900;28;20208;-62
2023/09/08 07:58:19;;;;;;;9.10;7.83;;;22.00;99.90;;;;;;5036954;28;20202;-61
2023/09/08 08:00:44;;;;;;;7.43;6.53;;;22.10;99.90;;;;;;5037780;28;20202;-63
2023/09/08 08:03:10;;;;;;;8.00;7.05;;;22.10;99.90;;;;;;5037864;28;20310;-65
2023/09/08 08:05:36;;;;;;;8.53;7.73;;;22.20;99.90;;;;;;5037081;28;20281;-62
2023/09/08 08:08:01;;;;;;;9.40;7.57;;;22.20;99.90;;;;;;5036094;28;20655;-60
2023/09/08 08:10:27;;;;;;;15.23;7.47;;;22.30;99.90;;;;;;5037243;28;20542;-59
2023/09/08 08:12:52;;;;;;;8.80;6.72;;;22.30;99.90;;;;;;5035199;28;20195;-64
2023/09/08 08:15:22;;;;;;;10.15;6.82;;;22.40;99.90;;;;;;5040746;28;20190;-55
2023/09/08 08:17:48;;;;;;;8.77;6.95;;;22.50;99.90;;;;;;5035562;28;20261;-56
2023/09/08 08:20:17;;;;;;;7.40;6.70;;;22.50;99.90;;;;;;5034156;28;20199;-59
2023/09/08 08:22:47;;;;;;;7.13;6.43;;;22.60;99.90;;;;;;5039839;28;20288;-56
2023/09/08 08:25:12;;;;;;;10.55;7.10;;;22.60;99.90;;;;;;5040153;28;20214;-56
2023/09/08 08:27:39;;;;;;;10.00;7.47;;;22.60;99.90;;;;;;5036583;28;20575;-56
2023/09/08 08:30:05;;;;;;;9.00;8.02;;;22.60;99.90;;;;;;5037139;28;20205;-56
2023/09/08 08:32:31;;;;;;;7.28;6.57;;;22.70;99.90;;;;;;5030822;28;20229;-57
2023/09/08 08:34:56;;;;;;;7.97;5.70;;;22.80;99.90;;;;;;5037036;28;20222;-56
2023/09/08 08:37:22;;;;;;;9.00;6.35;;;22.80;99.90;;;;;;5036215;28;20249;-57
2023/09/08 08:39:48;;;;;;;10.30;6.82;;;22.80;99.90;;;;;;5030078;28;20230;-62
2023/09/08 08:42:14;;;;;;;6.82;6.22;;;22.90;99.90;;;;;;5034872;28;20210;-61
2023/09/08 08:44:40;;;;;;;8.02;6.90;;;22.90;99.90;;;;;;5029899;28;20225;-67
2023/09/08 08:47:10;;;;;;;11.25;7.30;;;22.90;99.90;;;;;;5031727;28;20286;-58
2023/09/08 08:49:36;;;;;;;8.20;7.00;;;23.00;99.90;;;;;;5030016;28;20195;-58
2023/09/08 08:52:06;;;;;;;7.75;6.95;;;23.10;99.90;;;;;;5035355;28;20684;-55
2023/09/08 08:54:35;;;;;;;8.43;5.82;;;23.10;99.90;;;;;;5032956;28;20198;-57
2023/09/08 08:57:01;;;;;;;7.22;6.45;;;23.20;99.90;;;;;;5025152;28;20292;-59
2023/09/08 08:59:27;;;;;;;7.13;6.15;;;23.20;99.90;;;;;;5035017;28;20990;-60
2023/09/08 09:01:54;;;;;;;13.52;7.40;;;23.10;99.90;;;;;;5031283;28;20264;-59
2023/09/08 09:04:20;;;;;;;7.35;6.60;;;23.00;99.90;;;;;;5034216;28;20190;-59
2023/09/08 09:06:46;;;;;;;8.63;6.63;;;22.70;99.90;;;;;;5031069;28;20195;-63
2023/09/08 09:09:11;;;;;;;8.55;6.38;;;22.40;99.90;;;;;;5033936;28;20226;-57
2023/09/08 09:11:37;;;;;;;9.20;6.70;;;22.50;99.90;;;;;;5036867;28;20202;-59
2023/09/08 09:14:04;;;;;;;6.65;6.05;;;22.30;99.90;;;;;;5030850;28;20814;-58
2023/09/08 09:16:29;;;;;;;12.52;6.57;;;22.40;99.90;;;;;;5033007;28;20513;-57
2023/09/08 09:18:59;;;;;;;7.78;6.65;;;22.40;99.90;;;;;;5033176;28;20323;-58
2023/09/08 09:21:42;;;;;;;8.50;6.63;;;22.20;99.90;;;;;;5036589;28;20730;-59
2023/09/08 09:24:13;;;;;;;7.32;6.63;;;22.20;99.90;;;;;;5033137;28;20791;-58
2023/09/08 09:26:38;;;;;;;7.30;5.90;;;22.40;99.90;;;;;;5037567;28;20954;-58
2023/09/08 09:29:14;;;;;;;9.85;6.95;;;22.60;99.90;;;;;;5033390;28;20211;-58
2023/09/08 09:31:57;;;;;;;9.45;6.38;;;22.80;99.90;;;;;;5034969;28;20262;-58
2023/09/08 09:34:23;;;;;;;6.90;6.28;;;22.90;99.90;;;;;;5034735;28;20541;-57
2023/09/08 09:36:49;;;;;;;6.35;5.75;;;23.20;99.90;;;;;;5017480;28;20205;-58
2023/09/08 09:39:23;;;;;;;7.32;6.38;;;23.40;99.90;;;;;;5039561;28;20196;-58
2023/09/08 09:41:49;;;;;;;7.63;6.88;;;23.30;99.90;;;;;;5035703;28;20272;-58
2023/09/08 09:44:18;;;;;;;6.40;5.65;;;23.30;99.90;;;;;;5026912;28;20246;-57
2023/09/08 09:46:47;;;;;;;7.57;6.53;;;23.40;99.90;;;;;;5043352;28;20200;-58
2023/09/08 09:49:14;;;;;;;7.25;6.55;;;23.30;99.90;;;;;;5035840;28;20226;-58
2023/09/08 09:51:42;;;;;;;6.95;6.38;;;23.20;99.90;;;;;;5038209;28;20298;-58
2023/09/08 09:54:08;;;;;;;6.78;6.15;;;23.60;99.90;;;;;;5029786;28;20300;-59
2023/09/08 09:56:36;;;;;;;7.97;7.03;;;23.60;99.90;;;;;;5036113;28;20287;-59
2023/09/08 09:59:03;;;;;;;9.35;6.90;;;23.90;99.90;;;;;;5035442;28;20310;-59
2023/09/08 10:01:29;;;;;;;7.93;6.18;;;24.00;99.90;;;;;;5034702;28;20243;-60
2023/09/08 10:03:55;;;;;;;6.97;6.28;;;23.70;99.90;;;;;;5037403;28;20231;-58
2023/09/08 10:06:22;;;;;;;9.18;6.90;;;23.60;99.90;;;;;;5034701;28;20192;-58
2023/09/08 10:08:48;;;;;;;9.27;6.45;;;23.70;99.90;;;;;;5037942;28;20302;-58
2023/09/08 10:11:19;;;;;;;16.00;6.07;;;24.00;99.90;;;;;;5035539;28;20223;-58
2023/09/08 10:13:50;;;;;;;7.07;6.30;;;24.20;99.90;;;;;;5038400;28;20199;-58
2023/09/08 10:16:18;;;;;;;7.80;6.38;;;24.20;99.90;;;;;;5035365;28;20897;-59
2023/09/08 10:18:46;;;;;;;8.38;5.93;;;24.10;99.90;;;;;;5032442;28;20206;-60
2023/09/08 10:21:13;;;;;;;8.38;6.25;;;24.30;99.90;;;;;;5017247;28;20271;-58
2023/09/08 10:23:50;;;;;;;6.57;5.97;;;24.60;99.90;;;;;;5041679;28;20211;-58
2023/09/08 10:26:17;;;;;;;7.47;6.35;;;24.80;99.90;;;;;;5037278;28;20228;-58
2023/09/08 10:28:44;;;;;;;7.47;5.60;;;24.90;99.90;;;;;;5020891;28;20277;-58
2023/09/08 10:31:11;;;;;;;7.13;6.53;;;24.70;99.90;;;;;;5040615;28;20197;-58
2023/09/08 10:33:37;;;;;;;6.60;5.85;;;24.70;99.90;;;;;;5036987;28;20193;-58
2023/09/08 10:36:05;;;;;;;6.70;6.10;;;24.80;99.90;;;;;;5039086;28;20256;-57
2023/09/08 10:38:34;;;;;;;6.35;5.45;;;24.80;99.90;;;;;;5043192;28;20815;-57
2023/09/08 10:41:15;;;;;;;7.95;6.20;;;24.90;99.80;;;;;;5039177;28;20202;-58
2023/09/08 10:43:44;;;;;;;8.23;6.05;;;25.30;99.50;;;;;;5039271;28;20233;-58
2023/09/08 10:46:10;;;;;;;8.00;6.45;;;25.60;99.10;;;;;;5020948;28;20426;-58
2023/09/08 10:48:43;;;;;;;6.43;5.47;;;25.80;98.20;;;;;;5040199;28;20346;-58
2023/09/08 10:51:17;;;;;;;8.52;5.65;;;25.70;98.70;;;;;;5034905;28;20319;-58
2023/09/08 10:53:46;;;;;;;7.90;5.65;;;25.50;99.60;;;;;;5034248;28;20197;-58
2023/09/08 10:56:11;;;;;;;8.13;6.25;;;25.80;99.40;;;;;;5019125;28;20205;-58
2023/09/08 10:58:39;;;;;;;6.20;5.70;;;26.00;99.30;;;;;;5034604;28;20631;-59
2023/09/08 11:01:05;;;;;;;7.20;6.50;;;26.30;97.10;;;;;;5042780;28;20211;-58
2023/09/08 11:03:37;;;;;;;6.97;5.60;;;26.40;96.80;;;;;;5024516;28;20215;-58
2023/09/08 11:06:03;;;;;;;10.05;5.43;;;26.40;97.30;;;;;;5036592;28;20268;-54
2023/09/08 11:08:28;;;;;;;5.82;5.30;;;26.20;97.10;;;;;;5037456;28;20198;-54
2023/09/08 11:10:55;;;;;;;8.57;5.80;;;26.50;95.70;;;;;;5034672;28;21026;-55
2023/09/08 11:13:21;;;;;;;6.78;5.60;;;26.30;96.30;;;;;;5038660;28;20262;-55
2023/09/08 11:15:46;;;;;;;7.00;5.95;;;26.60;95.60;;;;;;5037441;28;20706;-57
2023/09/08 11:18:12;;;;;;;5.60;5.07;;;26.60;95.20;;;;;;5035458;28;20225;-58
2023/09/08 11:20:38;;;;;;;5.45;4.90;;;26.90;94.50;;;;;;5038763;28;20208;-54
2023/09/08 11:23:04;;;;;;;7.80;5.65;;;27.20;94.00;;;;;;5037913;28;20222;-57
2023/09/08 11:25:32;;;;;;;9.52;6.13;;;26.40;95.10;;;;;;5040820;28;20337;-56
2023/09/08 11:27:58;;;;;;;6.70;6.10;;;25.40;96.60;;;;;;5016520;28;20252;-56
2023/09/08 11:30:25;;;;;;;7.10;5.78;;;24.80;97.20;;;;;;5040700;28;20199;-55
2023/09/08 11:32:54;;;;;;;8.55;5.18;;;24.90;98.30;;;;;;5044952;28;20510;-54
2023/09/08 11:35:20;;;;;;;7.45;5.25;;;25.20;97.40;;;;;;5040743;28;20190;-54
2023/09/08 11:37:46;;;;;;;6.20;5.28;;;25.60;96.70;;;;;;5020557;28;23330;-57
2023/09/08 11:40:13;;;;;;;6.72;5.78;;;25.90;95.70;;;;;;5034628;28;20277;-57
2023/09/08 11:42:44;;;;;;;6.00;5.28;;;25.90;96.40;;;;;;5019215;28;20774;-55
2023/09/08 11:45:14;;;;;;;5.85;5.20;;;26.60;95.30;;;;;;5039577;28;20248;-59
2023/09/08 11:47:41;;;;;;;6.57;5.68;;;26.50;95.20;;;;;;5037593;28;20229;-55
2023/09/08 11:50:08;;;;;;;7.60;5.65;;;26.30;95.30;;;;;;5042153;28;20198;-56
2023/09/08 11:52:33;;;;;;;5.75;5.25;;;26.20;95.10;;;;;;5038553;28;20289;-55
2023/09/08 11:54:59;;;;;;;5.85;4.93;;;26.10;94.60;;;;;;5020445;28;20270;-54
2023/09/08 11:57:25;;;;;;;6.55;5.05;;;26.80;93.90;;;;;;5033419;28;20214;-55
2023/09/08 11:59:51;;;;;;;9.23;5.43;;;27.40;93.20;;;;;;5041634;28;20207;-61
2023/09/08 12:02:17;;;;;;;5.32;4.88;;;27.10;92.80;;;;;;5037097;28;20218;-61
2023/09/08 12:04:43;;;;;;;5.50;5.07;;;27.40;93.10;;;;;;5035339;28;20211;-54
2023/09/08 12:07:16;;;;;;;5.22;4.72;;;27.20;92.90;;;;;;5039612;28;20290;-56
2023/09/08 12:09:42;;;;;;;6.20;5.57;;;27.20;92.80;;;;;;5037407;28;20199;-54
2023/09/08 12:12:12;;;;;;;5.85;5.32;;;27.90;91.00;;;;;;5036578;28;20199;-63
2023/09/08 12:14:42;;;;;;;5.72;5.15;;;27.30;91.50;;;;;;5023128;28;20199;-60
2023/09/08 12:17:08;;;;;;;6.20;5.43;;;27.00;91.70;;;;;;5040969;28;20198;-60
2023/09/08 12:19:36;;;;;;;9.77;6.57;;;;;;;;;;5037326;28;20223;-61
2023/09/08 12:22:03;;;;;;;5.38;4.88;;;27.90;90.20;;;;;;5036401;28;20215;-61
2023/09/08 12:24:49;;;;;;;6.15;5.22;;;28.00;91.10;;;;;;5038899;28;20203;-60
2023/09/08 12:27:16;;;;;;;5.32;4.93;;;28.20;90.70;;;;;;5036102;28;20221;-61
2023/09/08 12:30:04;;;;;;;6.57;4.80;;;28.30;89.60;;;;;;5019282;28;20202;-61
2023/09/08 12:32:32;;;;;;;5.00;4.60;;;28.60;88.40;;;;;;5020964;28;20190;-61
2023/09/08 12:35:04;;;;;;;6.38;4.72;;;28.40;89.30;;;;;;5027329;28;20226;-61
2023/09/08 12:37:32;;;;;;;5.55;5.07;;;28.00;90.70;;;;;;5007375;28;20199;-61
2023/09/08 12:39:58;;;;;;;7.18;5.40;;;28.30;88.10;;;;;;5037384;28;20256;-61